Time;durP1;ratioP1;P1;durP2;ratioP2;P2;SDS_P1;SDS_P2;PMS_P1;PMS_P2;Temp;Humidity;BMP_temperature;BMP_pressure;BME280_temperature;BME280_humidity;BME280_pressure;Samples;Min_cycle;Max_cycle;Signal;HPM_P1;HPM_P2
2022/04/18 00:00:08;;;;;;;16.40;10.43;;;13.50;58.50;;;;;;5000779;28;20034;-88
2022/04/18 00:02:35;;;;;;;17.75;10.13;;;13.50;58.20;;;;;;5021010;28;20486;-87
2022/04/18 00:05:03;;;;;;;15.75;10.85;;;13.40;58.30;;;;;;5026840;28;20029;-87
2022/04/18 00:07:29;;;;;;;17.70;10.02;;;13.40;58.90;;;;;;4997071;28;20042;-88
2022/04/18 00:09:55;;;;;;;15.02;9.82;;;13.40;59.20;;;;;;5015944;28;20029;-88
2022/04/18 00:12:21;;;;;;;13.55;9.98;;;13.40;59.40;;;;;;5015687;28;20502;-88
2022/04/18 00:14:46;;;;;;;16.50;11.10;;;13.30;59.10;;;;;;5009041;28;20458;-89
2022/04/18 00:17:12;;;;;;;16.25;10.60;;;13.30;60.10;;;;;;5032065;28;20022;-88
2022/04/18 00:19:38;;;;;;;16.70;10.82;;;13.20;59.80;;;;;;5005452;28;20036;-88
2022/04/18 00:22:07;;;;;;;15.15;10.57;;;13.20;59.80;;;;;;5012749;28;20021;-88
2022/04/18 00:24:33;;;;;;;15.35;10.70;;;13.20;59.80;;;;;;5012668;28;20050;-88
2022/04/18 00:27:00;;;;;;;15.07;11.15;;;13.10;60.20;;;;;;5015483;28;20099;-87
2022/04/18 00:29:26;;;;;;;16.20;10.38;;;13.00;59.90;;;;;;5021444;28;20026;-87
2022/04/18 00:31:52;;;;;;;17.70;11.15;;;13.00;60.20;;;;;;5003803;28;20505;-87
2022/04/18 00:34:18;;;;;;;17.65;10.73;;;13.00;60.50;;;;;;5027718;28;20030;-88
2022/04/18 00:36:45;;;;;;;14.32;10.50;;;13.00;60.90;;;;;;5018549;28;20022;-86
2022/04/18 00:39:11;;;;;;;18.52;11.07;;;12.90;60.80;;;;;;4999811;28;20533;-87
2022/04/18 00:41:37;;;;;;;16.38;11.48;;;12.90;60.80;;;;;;5019890;28;20419;-86
2022/04/18 00:44:03;;;;;;;17.55;11.07;;;12.90;60.50;;;;;;5021185;28;20032;-87
2022/04/18 00:46:28;;;;;;;17.38;10.77;;;12.80;60.50;;;;;;5001016;28;20537;-87
2022/04/18 00:48:54;;;;;;;17.52;11.52;;;12.80;61.00;;;;;;4995705;28;20034;-87
2022/04/18 00:51:23;;;;;;;18.55;12.18;;;12.70;61.00;;;;;;5011837;28;20029;-86
2022/04/18 00:53:52;;;;;;;18.02;11.55;;;12.70;61.00;;;;;;5014987;28;20018;-87
2022/04/18 00:56:19;;;;;;;17.42;11.60;;;12.70;61.10;;;;;;5012381;28;20068;-87
2022/04/18 00:58:48;;;;;;;17.48;11.73;;;12.60;61.20;;;;;;5012262;28;20050;-86
2022/04/18 01:01:15;;;;;;;16.75;10.90;;;12.60;61.30;;;;;;5011914;28;20037;-88
2022/04/18 01:03:42;;;;;;;16.50;11.57;;;12.50;61.60;;;;;;5015518;28;20034;-88
2022/04/18 01:06:09;;;;;;;17.55;11.27;;;12.50;61.70;;;;;;5013967;28;20021;-87
2022/04/18 01:08:35;;;;;;;16.77;10.45;;;12.50;62.00;;;;;;4980110;28;20490;-88
2022/04/18 01:11:05;;;;;;;15.60;11.38;;;12.40;62.00;;;;;;5018626;28;20393;-88
2022/04/18 01:13:42;;;;;;;17.77;11.23;;;12.40;62.40;;;;;;5017720;28;20021;-87
2022/04/18 01:16:08;;;;;;;15.93;11.63;;;12.40;62.80;;;;;;5012342;28;20049;-87
2022/04/18 01:18:37;;;;;;;17.15;11.10;;;12.30;62.60;;;;;;5017097;28;20029;-87
2022/04/18 01:21:07;;;;;;;16.48;11.25;;;12.30;62.60;;;;;;5015738;28;20030;-86
2022/04/18 01:23:32;;;;;;;17.20;11.63;;;12.30;62.70;;;;;;5016322;28;20030;-87
2022/04/18 01:28:58;;;;;;;18.92;11.50;;;12.20;63.40;;;;;;5016211;28;20159;-87
2022/04/18 01:31:26;;;;;;;;;;;12.10;63.70;;;;;;5029105;28;20129;-87
2022/04/18 01:33:57;;;;;;;16.23;10.82;;;12.10;64.00;;;;;;5021387;28;19905;-87
2022/04/18 01:36:27;;;;;;;17.83;11.40;;;12.00;63.70;;;;;;5012351;28;20026;-87
2022/04/18 01:38:56;;;;;;;16.27;11.30;;;12.00;64.00;;;;;;5017137;28;20382;-87
2022/04/18 01:41:22;;;;;;;17.98;12.23;;;11.90;64.10;;;;;;5022818;28;20386;-87
2022/04/18 01:43:49;;;;;;;19.08;12.63;;;11.90;64.30;;;;;;5014400;28;20026;-86
2022/04/18 01:46:16;;;;;;;17.13;12.00;;;11.80;64.40;;;;;;5015435;28;20022;-87
2022/04/18 01:48:43;;;;;;;17.38;11.23;;;11.80;64.80;;;;;;5013258;28;20025;-86
2022/04/18 01:51:11;;;;;;;15.98;11.60;;;11.80;64.60;;;;;;5025441;28;20026;-87
2022/04/18 01:53:37;;;;;;;19.42;11.88;;;11.80;64.70;;;;;;5006108;28;20029;-87
2022/04/18 01:56:03;;;;;;;15.30;11.13;;;11.70;65.00;;;;;;5007209;28;20359;-86
2022/04/18 01:58:28;;;;;;;20.33;12.18;;;11.70;65.20;;;;;;5016121;28;20046;-87
2022/04/18 02:00:54;;;;;;;15.82;11.40;;;11.60;65.10;;;;;;5017210;28;20034;-87
2022/04/18 02:03:21;;;;;;;14.00;10.52;;;11.60;65.40;;;;;;5023408;28;20037;-87
2022/04/18 02:05:47;;;;;;;18.25;12.32;;;11.60;65.60;;;;;;5018650;28;20021;-87
2022/04/18 02:08:13;;;;;;;16.23;11.02;;;11.60;65.90;;;;;;5024276;28;20032;-87
2022/04/18 02:10:39;;;;;;;17.00;10.77;;;11.50;66.00;;;;;;5001770;28;20030;-87
2022/04/18 02:13:05;;;;;;;20.42;11.88;;;11.50;66.10;;;;;;5019049;28;20447;-87
2022/04/18 02:15:31;;;;;;;17.75;10.88;;;11.40;66.10;;;;;;5027050;28;20101;-88
2022/04/18 02:17:56;;;;;;;18.20;11.60;;;11.40;66.00;;;;;;5022481;28;20032;-86
2022/04/18 02:20:25;;;;;;;16.13;10.98;;;11.40;66.00;;;;;;5026151;28;20113;-86
2022/04/18 02:22:51;;;;;;;15.82;10.80;;;11.40;66.30;;;;;;5028686;28;20033;-87
2022/04/18 02:25:16;;;;;;;17.65;10.73;;;11.30;66.60;;;;;;5020039;28;20026;-89
2022/04/18 02:27:43;;;;;;;15.75;10.90;;;11.30;66.90;;;;;;5018134;28;20095;-88
2022/04/18 02:30:11;;;;;;;18.23;11.05;;;11.30;67.10;;;;;;5016430;28;20026;-87
2022/04/18 02:32:50;;;;;;;17.08;11.60;;;11.20;67.10;;;;;;5015460;28;20471;-88
2022/04/18 02:35:21;;;;;;;18.80;12.07;;;11.20;67.40;;;;;;5011187;28;20034;-87
2022/04/18 02:37:47;;;;;;;19.05;11.82;;;11.20;67.50;;;;;;5023301;28;20056;-88
2022/04/18 02:40:13;;;;;;;19.30;13.23;;;11.10;67.40;;;;;;5005309;28;20402;-88
2022/04/18 02:42:42;;;;;;;18.80;11.77;;;11.10;67.50;;;;;;5024004;28;20030;-87
2022/04/18 02:45:11;;;;;;;19.83;11.63;;;11.10;67.20;;;;;;5017549;28;20021;-86
2022/04/18 02:47:37;;;;;;;19.67;12.88;;;11.00;67.10;;;;;;5002957;28;20018;-86
2022/04/18 02:50:04;;;;;;;18.75;12.25;;;11.00;67.40;;;;;;5017755;28;20476;-87
2022/04/18 02:52:30;;;;;;;17.40;11.10;;;11.00;67.60;;;;;;5017328;28;20029;-88
2022/04/18 02:54:56;;;;;;;18.40;11.52;;;10.90;67.60;;;;;;5020179;28;20026;-88
2022/04/18 02:57:21;;;;;;;17.17;12.05;;;10.90;67.60;;;;;;5018408;28;20018;-88
2022/04/18 02:59:48;;;;;;;17.95;11.52;;;10.90;67.60;;;;;;5023868;28;20382;-89
2022/04/18 03:02:14;;;;;;;16.88;11.48;;;10.80;67.60;;;;;;5034566;28;20037;-89
2022/04/18 03:04:40;;;;;;;17.05;11.63;;;10.80;67.40;;;;;;5022750;28;20022;-88
2022/04/18 03:07:06;;;;;;;18.58;11.52;;;10.80;67.50;;;;;;4999710;28;20493;-87
2022/04/18 03:09:32;;;;;;;19.10;12.00;;;10.70;67.50;;;;;;4997902;28;20113;-87
2022/04/18 03:11:58;;;;;;;17.10;11.70;;;10.70;67.50;;;;;;5017322;28;20094;-87
2022/04/18 03:14:28;;;;;;;17.17;11.32;;;10.60;67.50;;;;;;5003745;28;20033;-88
2022/04/18 03:16:54;;;;;;;15.98;11.27;;;10.60;68.00;;;;;;5002156;28;20133;-87
2022/04/18 03:19:20;;;;;;;16.05;11.07;;;10.60;68.10;;;;;;5009664;28;20466;-87
2022/04/18 03:21:46;;;;;;;19.83;11.50;;;10.50;68.10;;;;;;5028574;28;20036;-87
2022/04/18 03:24:15;;;;;;;16.95;11.15;;;10.50;68.10;;;;;;5022059;28;20064;-87
2022/04/18 03:26:40;;;;;;;19.45;11.68;;;10.50;68.30;;;;;;5021659;28;20037;-88
2022/04/18 03:29:06;;;;;;;20.08;12.15;;;10.40;68.50;;;;;;5017758;28;20022;-88
2022/04/18 03:31:32;;;;;;;20.63;11.60;;;10.40;68.60;;;;;;5018374;28;20041;-87
2022/04/18 03:34:00;;;;;;;16.33;11.02;;;10.40;68.80;;;;;;5013557;28;20041;-87
2022/04/18 03:41:56;;;;;;;17.60;12.25;;;10.30;69.00;;;;;;5015544;28;20108;-88
2022/04/18 03:44:22;;;;;;;15.55;11.43;;;10.20;69.20;;;;;;5010121;28;20021;-88
2022/04/18 03:46:50;;;;;;;18.95;13.25;;;10.20;69.20;;;;;;5022162;28;20022;-88
2022/04/18 03:49:18;;;;;;;16.88;11.52;;;10.20;69.30;;;;;;5013969;28;20084;-88
2022/04/18 03:51:44;;;;;;;18.73;11.15;;;10.10;69.70;;;;;;5016975;28;20045;-88
2022/04/18 03:54:09;;;;;;;15.25;10.60;;;10.10;69.90;;;;;;5022839;28;20025;-88
2022/04/18 03:56:35;;;;;;;17.15;12.38;;;10.10;69.80;;;;;;5010950;28;20034;-88
2022/04/18 03:59:03;;;;;;;16.90;11.15;;;10.00;69.80;;;;;;5015673;28;20053;-86
2022/04/18 04:01:29;;;;;;;15.15;11.18;;;10.00;70.30;;;;;;4996495;28;20041;-88
2022/04/18 04:03:55;;;;;;;18.35;11.75;;;10.00;70.70;;;;;;5021724;28;20034;-87
2022/04/18 04:06:20;;;;;;;16.05;11.40;;;9.90;71.00;;;;;;4997297;28;20026;-87
2022/04/18 04:08:46;;;;;;;17.17;11.63;;;9.90;71.30;;;;;;5013524;28;20022;-86
2022/04/18 04:11:12;;;;;;;16.08;11.43;;;9.90;71.50;;;;;;5013144;28;20417;-87
2022/04/18 04:13:37;;;;;;;15.80;11.10;;;9.90;71.70;;;;;;5008847;28;20026;-87
2022/04/18 04:16:03;;;;;;;17.48;11.80;;;9.90;71.70;;;;;;5012651;28;20026;-89
2022/04/18 04:18:32;;;;;;;16.60;11.70;;;9.80;71.50;;;;;;5019359;28;20022;-88
2022/04/18 04:20:58;;;;;;;18.02;12.25;;;9.80;71.70;;;;;;5014186;28;20026;-88
2022/04/18 04:23:26;;;;;;;18.55;11.73;;;9.70;71.50;;;;;;5013165;28;20048;-88
2022/04/18 04:25:52;;;;;;;18.85;12.10;;;9.80;71.50;;;;;;5009367;28;20063;-88
2022/04/18 04:28:20;;;;;;;22.10;12.27;;;9.70;71.60;;;;;;5004602;28;20036;-87
2022/04/18 04:30:46;;;;;;;18.08;12.18;;;9.70;71.80;;;;;;5015993;28;20030;-88
2022/04/18 04:33:15;;;;;;;16.70;11.50;;;9.70;71.70;;;;;;4996927;28;20034;-88
2022/04/18 04:35:41;;;;;;;19.60;11.65;;;9.60;72.30;;;;;;5012936;28;20109;-88
2022/04/18 04:38:07;;;;;;;17.85;11.88;;;9.60;71.90;;;;;;5013693;28;20045;-87
2022/04/18 04:40:32;;;;;;;15.63;11.23;;;9.60;72.10;;;;;;5016792;28;20466;-86
2022/04/18 04:42:58;;;;;;;19.75;11.63;;;9.60;72.40;;;;;;5013344;28;20084;-87
2022/04/18 04:45:24;;;;;;;18.35;12.20;;;9.50;72.60;;;;;;5025046;28;20079;-88
2022/04/18 04:47:50;;;;;;;16.63;11.80;;;9.50;72.60;;;;;;5012750;28;20045;-88
2022/04/18 04:50:18;;;;;;;18.10;12.18;;;9.50;72.90;;;;;;5000573;28;20385;-87
2022/04/18 04:52:44;;;;;;;20.48;12.45;;;9.50;73.00;;;;;;4999796;28;20037;-87
2022/04/18 04:55:11;;;;;;;17.40;12.32;;;9.50;73.20;;;;;;4996086;28;20402;-87
2022/04/18 04:57:37;;;;;;;18.60;11.70;;;9.40;73.20;;;;;;5017582;28;20042;-88
2022/04/18 05:00:04;;;;;;;18.23;11.30;;;9.40;73.30;;;;;;4998783;28;20030;-87
2022/04/18 05:02:29;;;;;;;17.52;11.15;;;9.40;73.40;;;;;;5024719;28;20096;-87
2022/04/18 05:04:55;;;;;;;17.13;11.07;;;9.40;73.60;;;;;;4987806;28;20128;-87
2022/04/18 05:07:21;;;;;;;18.65;11.95;;;9.40;73.70;;;;;;5016886;28;20065;-86
2022/04/18 05:09:47;;;;;;;18.02;11.55;;;9.40;73.90;;;;;;4996230;28;20026;-87
2022/04/18 05:12:12;;;;;;;16.90;11.57;;;9.40;74.00;;;;;;5016848;28;20021;-88
2022/04/18 05:14:38;;;;;;;18.05;11.88;;;9.40;74.10;;;;;;4998920;28;20044;-88
2022/04/18 05:17:05;;;;;;;19.65;11.48;;;9.30;74.20;;;;;;5023818;28;20105;-88
2022/04/18 05:19:30;;;;;;;18.23;11.85;;;9.30;74.40;;;;;;5017005;28;20114;-88
2022/04/18 05:21:56;;;;;;;14.95;11.05;;;9.30;74.50;;;;;;5021401;28;20512;-87
2022/04/18 05:24:22;;;;;;;16.30;11.73;;;9.30;74.70;;;;;;5019052;28;20053;-88
2022/04/18 05:26:48;;;;;;;17.88;10.95;;;9.30;74.90;;;;;;5028439;28;20030;-86
2022/04/18 05:29:13;;;;;;;17.88;11.70;;;9.30;75.20;;;;;;5018869;28;20030;-88
2022/04/18 05:31:39;;;;;;;17.50;11.10;;;9.30;75.20;;;;;;5027058;28;20107;-88
2022/04/18 05:34:08;;;;;;;17.48;11.35;;;9.30;75.10;;;;;;5024227;28;20026;-88
2022/04/18 05:36:34;;;;;;;18.35;11.52;;;9.30;75.20;;;;;;5003261;28;20026;-88
2022/04/18 05:38:59;;;;;;;16.42;11.18;;;9.30;75.40;;;;;;5020746;28;20029;-88
2022/04/18 05:41:25;;;;;;;15.65;11.00;;;9.30;76.30;;;;;;5034756;28;20041;-87
2022/04/18 05:44:00;;;;;;;16.38;11.13;;;9.30;76.00;;;;;;5026977;28;20022;-86
2022/04/18 05:46:27;;;;;;;15.02;10.02;;;9.30;76.20;;;;;;5026294;28;20104;-88
2022/04/18 05:48:53;;;;;;;14.95;10.77;;;9.30;76.40;;;;;;4983804;28;20539;-87
2022/04/18 05:51:19;;;;;;;17.17;10.60;;;9.30;76.60;;;;;;5031794;28;20034;-89
2022/04/18 05:53:50;;;;;;;16.00;10.15;;;9.30;77.30;;;;;;5001088;28;20026;-88
2022/04/18 05:56:16;;;;;;;15.10;10.02;;;9.40;76.60;;;;;;5020307;28;20025;-87
2022/04/18 05:58:42;;;;;;;16.20;10.55;;;9.40;77.00;;;;;;5030369;28;20060;-88
2022/04/18 06:01:08;;;;;;;17.38;10.32;;;9.40;76.80;;;;;;5015645;28;20076;-87
2022/04/18 06:03:37;;;;;;;13.80;9.43;;;9.40;77.00;;;;;;5017239;28;20026;-88
2022/04/18 06:06:03;;;;;;;14.32;9.68;;;9.40;77.00;;;;;;5023822;28;20501;-88
2022/04/18 06:08:32;;;;;;;16.42;9.82;;;9.50;76.50;;;;;;5029630;28;20025;-88
2022/04/18 06:10:58;;;;;;;16.45;9.48;;;9.50;76.10;;;;;;5027623;28;20037;-87
2022/04/18 06:13:27;;;;;;;16.08;10.10;;;9.50;75.90;;;;;;5020885;28;20021;-87
2022/04/18 06:15:52;;;;;;;13.07;9.07;;;9.50;75.60;;;;;;5022897;28;20029;-88
2022/04/18 06:18:21;;;;;;;14.90;9.55;;;9.50;75.60;;;;;;5016260;28;20014;-88
2022/04/18 06:20:46;;;;;;;16.85;9.48;;;9.50;75.20;;;;;;5015336;28;20429;-88
2022/04/18 06:23:17;;;;;;;15.18;9.48;;;9.60;75.00;;;;;;5018276;28;20849;-88
2022/04/18 06:25:46;;;;;;;14.93;9.10;;;9.60;74.80;;;;;;5015648;28;20037;-88
2022/04/18 06:28:14;;;;;;;14.25;8.55;;;9.60;74.60;;;;;;5025396;28;20037;-88
2022/04/18 06:30:40;;;;;;;14.48;8.60;;;9.60;74.50;;;;;;5020713;28;20108;-88
2022/04/18 06:33:20;;;;;;;12.70;8.32;;;9.70;74.40;;;;;;5022075;28;20124;-88
2022/04/18 06:35:46;;;;;;;12.07;7.35;;;9.70;74.10;;;;;;5023147;28;20030;-88
2022/04/18 06:38:12;;;;;;;12.02;7.38;;;9.70;73.90;;;;;;5017518;28;20022;-88
2022/04/18 06:40:38;;;;;;;12.02;6.40;;;9.70;73.60;;;;;;5020093;28;20044;-87
2022/04/18 06:43:04;;;;;;;11.50;7.00;;;9.80;73.20;;;;;;5017879;28;20469;-86
2022/04/18 06:45:31;;;;;;;9.45;5.85;;;9.90;72.80;;;;;;5001019;28;20037;-87
2022/04/18 06:48:00;;;;;;;11.13;6.22;;;9.90;72.50;;;;;;5019568;28;20057;-88
2022/04/18 06:50:28;;;;;;;11.63;6.82;;;9.90;72.30;;;;;;5006051;28;20478;-88
2022/04/18 06:52:54;;;;;;;12.23;5.97;;;10.00;72.10;;;;;;5022427;28;20128;-87
2022/04/18 06:55:20;;;;;;;11.48;5.95;;;10.00;72.00;;;;;;5002988;28;20104;-87
2022/04/18 06:57:48;;;;;;;10.82;5.47;;;10.20;71.80;;;;;;5017542;28;20486;-87
2022/04/18 07:00:14;;;;;;;9.35;5.70;;;10.20;71.60;;;;;;5008409;28;20046;-92
2022/04/18 07:02:45;;;;;;;10.52;5.93;;;10.20;71.40;;;;;;5014566;28;20030;-88
2022/04/18 07:05:11;;;;;;;9.73;5.80;;;10.30;71.20;;;;;;5021160;28;20394;-88
2022/04/18 07:07:37;;;;;;;8.27;4.53;;;10.40;71.00;;;;;;5015015;28;20398;-88
2022/04/18 07:10:07;;;;;;;6.90;3.95;;;10.50;70.80;;;;;;5018122;28;20034;-88
2022/04/18 07:12:40;;;;;;;6.28;3.50;;;10.60;70.80;;;;;;5014494;28;20025;-86
2022/04/18 07:15:06;;;;;;;7.00;3.13;;;10.60;69.70;;;;;;5017138;28;20030;-84
2022/04/18 07:17:33;;;;;;;6.55;3.35;;;10.80;70.00;;;;;;5007697;28;20030;-89
2022/04/18 07:19:59;;;;;;;5.75;3.60;;;10.90;69.80;;;;;;5029767;28;20033;-87
2022/04/18 07:22:29;;;;;;;6.03;3.60;;;11.00;69.30;;;;;;5003192;28;20034;-89
2022/04/18 07:24:59;;;;;;;5.38;3.35;;;11.10;68.80;;;;;;5015943;28;20029;-88
2022/04/18 07:27:36;;;;;;;;;;;;;;;;;;;;;
2022/04/18 07:30:04;;;;;;;5.68;3.20;;;11.30;68.50;;;;;;5022954;28;20037;-87
2022/04/18 07:32:30;;;;;;;5.88;3.28;;;11.40;68.10;;;;;;5025760;28;20025;-88
2022/04/18 07:35:02;;;;;;;7.40;3.03;;;11.50;68.10;;;;;;5022480;28;20386;-87
2022/04/18 07:37:27;;;;;;;4.35;2.72;;;11.60;68.30;;;;;;5030377;28;20072;-85
2022/04/18 07:39:53;;;;;;;4.70;2.88;;;11.70;68.00;;;;;;5014115;28;20030;-88
2022/04/18 07:42:19;;;;;;;4.88;2.78;;;11.80;67.10;;;;;;5013328;28;20122;-87
2022/04/18 07:44:45;;;;;;;5.85;2.63;;;12.00;67.50;;;;;;4996976;28;20030;-88
2022/04/18 07:47:11;;;;;;;5.05;2.65;;;12.10;67.30;;;;;;4997883;28;20041;-87
2022/04/18 07:49:39;;;;;;;5.65;2.83;;;12.20;66.80;;;;;;4998420;28;20113;-87
2022/04/18 07:52:16;;;;;;;4.93;2.58;;;12.30;65.90;;;;;;5010330;28;20029;-88
2022/04/18 07:54:43;;;;;;;3.83;2.30;;;12.50;66.00;;;;;;5012918;28;20062;-86
2022/04/18 07:57:08;;;;;;;5.00;2.42;;;12.60;66.00;;;;;;5014128;28;20025;-87
2022/04/18 07:59:34;;;;;;;6.68;2.63;;;12.70;65.70;;;;;;4999531;28;20407;-87
2022/04/18 08:02:00;;;;;;;4.63;2.58;;;12.90;65.60;;;;;;4997615;28;20141;-88
2022/04/18 08:04:28;;;;;;;5.03;2.45;;;13.00;65.30;;;;;;5013190;28;20026;-87
2022/04/18 08:06:53;;;;;;;4.55;2.35;;;13.10;65.40;;;;;;5013185;28;20116;-88
2022/04/18 08:09:22;;;;;;;4.97;2.47;;;13.20;64.40;;;;;;5015069;28;20160;-87
2022/04/18 08:11:48;;;;;;;8.27;2.55;;;13.30;63.70;;;;;;5018561;28;20049;-87
2022/04/18 08:14:14;;;;;;;4.00;2.30;;;13.50;63.10;;;;;;5013389;28;20029;-87
2022/04/18 08:16:40;;;;;;;4.30;2.22;;;13.60;62.80;;;;;;4997171;28;20054;-86
2022/04/18 08:19:05;;;;;;;3.92;1.90;;;13.80;62.70;;;;;;4997149;28;20034;-87
2022/04/18 08:21:31;;;;;;;3.80;2.13;;;13.90;62.60;;;;;;5006978;28;20458;-87
2022/04/18 08:23:57;;;;;;;6.18;2.33;;;14.00;60.50;;;;;;4984050;28;20497;-87
2022/04/18 08:26:25;;;;;;;5.30;2.35;;;14.20;60.30;;;;;;5013566;28;20040;-89
2022/04/18 08:28:51;;;;;;;5.43;2.58;;;14.30;60.50;;;;;;5021535;28;20030;-89
2022/04/18 08:31:19;;;;;;;3.55;2.22;;;14.40;60.60;;;;;;5019749;28;20045;-88
2022/04/18 08:33:45;;;;;;;4.55;2.30;;;14.60;60.30;;;;;;5014775;28;20029;-88
2022/04/18 08:36:16;;;;;;;5.57;2.78;;;14.70;60.00;;;;;;5017071;28;20026;-87
2022/04/18 08:38:45;;;;;;;5.20;2.38;;;14.80;59.80;;;;;;5012783;28;20064;-87
2022/04/18 08:41:22;;;;;;;4.07;2.17;;;15.00;58.90;;;;;;5014470;28;20462;-88
2022/04/18 08:43:49;;;;;;;4.88;2.20;;;15.10;58.80;;;;;;5003872;28;20075;-88
2022/04/18 08:46:24;;;;;;;4.80;2.15;;;15.30;59.10;;;;;;5020562;28;20026;-87
2022/04/18 08:54:23;;;;;;;3.70;1.95;;;15.60;57.70;;;;;;5019280;28;20040;-88
2022/04/18 08:56:50;;;;;;;3.58;2.10;;;15.80;56.50;;;;;;5025457;28;20022;-87
2022/04/18 08:59:16;;;;;;;4.07;2.10;;;15.90;57.30;;;;;;5027543;28;20045;-88
2022/04/18 09:01:50;;;;;;;4.55;2.15;;;15.90;57.50;;;;;;5000048;28;20048;-89
2022/04/18 09:04:21;;;;;;;3.97;2.47;;;16.10;57.30;;;;;;5021034;28;20022;-88
2022/04/18 09:06:47;;;;;;;;;;;16.20;55.30;;;;;;5026963;28;20025;-88
2022/04/18 09:09:14;;;;;;;6.47;2.58;;;16.30;55.20;;;;;;5031569;28;19905;-87
2022/04/18 09:11:41;;;;;;;2.78;2.00;;;16.40;55.70;;;;;;5008837;28;20034;-88
2022/04/18 09:14:15;;;;;;;4.28;2.30;;;16.50;55.70;;;;;;5024602;28;20437;-88
2022/04/18 09:17:04;;;;;;;8.80;2.78;;;16.60;55.80;;;;;;5023165;28;20025;-87
2022/04/18 09:19:33;;;;;;;3.92;2.10;;;16.80;56.00;;;;;;5017818;28;20490;-87
2022/04/18 09:22:00;;;;;;;3.90;2.22;;;16.80;56.00;;;;;;5012683;28;20421;-88
2022/04/18 09:24:35;;;;;;;5.38;2.17;;;17.00;55.80;;;;;;5011748;28;20060;-88
2022/04/18 09:27:26;;;;;;;4.82;2.92;;;17.10;55.60;;;;;;5018468;28;20068;-88
2022/04/18 09:30:07;;;;;;;4.13;2.63;;;17.20;52.60;;;;;;5021849;28;20487;-88
2022/04/18 09:32:42;;;;;;;3.83;2.53;;;17.20;52.40;;;;;;5020206;28;20033;-88
2022/04/18 09:35:09;;;;;;;8.10;3.22;;;17.30;52.80;;;;;;5020255;28;20459;-88
2022/04/18 09:37:39;;;;;;;4.78;2.45;;;17.40;53.50;;;;;;5018833;28;20030;-88
2022/04/18 09:40:08;;;;;;;3.55;2.10;;;17.40;53.80;;;;;;4995381;28;20092;-88
2022/04/18 09:42:34;;;;;;;5.35;2.78;;;17.50;53.70;;;;;;5015442;28;21747;-88
2022/04/18 09:45:02;;;;;;;3.25;2.03;;;17.60;53.30;;;;;;5011323;28;20088;-88
2022/04/18 09:47:35;;;;;;;5.32;2.88;;;17.70;52.90;;;;;;4996626;28;20033;-89
2022/04/18 09:53:14;;;;;;;5.88;2.53;;;17.90;51.20;;;;;;5013460;28;20088;-89
2022/04/18 09:55:45;;;;;;;5.25;2.63;;;18.00;51.50;;;;;;4996954;28;20022;-89
2022/04/18 09:58:36;;;;;;;3.63;2.22;;;18.10;52.00;;;;;;5015905;28;20054;-87
2022/04/18 10:01:08;;;;;;;5.60;2.60;;;18.10;50.70;;;;;;5019143;28;20120;-87
2022/04/18 10:03:35;;;;;;;5.72;2.80;;;18.20;49.50;;;;;;5023152;28;20044;-89
2022/04/18 10:06:03;;;;;;;4.28;2.58;;;18.30;49.80;;;;;;5013565;28;20462;-88
2022/04/18 10:08:31;;;;;;;3.25;2.08;;;18.30;50.00;;;;;;4995939;28;20033;-88
2022/04/18 10:10:59;;;;;;;4.65;2.38;;;18.40;49.60;;;;;;5022490;28;20030;-87
2022/04/18 10:13:30;;;;;;;4.90;2.22;;;18.50;50.60;;;;;;5017827;28;20037;-89
2022/04/18 10:15:58;;;;;;;;;;;18.60;50.50;;;;;;5012404;28;20026;-88
2022/04/18 10:18:29;;;;;;;2.80;2.10;;;18.60;49.20;;;;;;5012408;28;19912;-87
2022/04/18 10:21:07;;;;;;;3.95;2.28;;;18.70;49.80;;;;;;5017862;28;20037;-88
2022/04/18 10:23:58;;;;;;;4.10;2.40;;;18.80;49.10;;;;;;5016627;28;20467;-89
2022/04/18 10:26:50;;;;;;;5.07;2.30;;;18.80;49.50;;;;;;5012656;28;20121;-89
2022/04/18 10:29:23;;;;;;;4.57;2.50;;;18.90;47.50;;;;;;5031335;28;20025;-88
2022/04/18 10:31:52;;;;;;;6.15;2.42;;;19.00;46.80;;;;;;5024168;28;20089;-88
2022/04/18 10:34:24;;;;;;;5.78;2.47;;;19.00;47.40;;;;;;5019386;28;20026;-89
2022/04/18 10:36:54;;;;;;;3.15;2.28;;;19.10;48.50;;;;;;5015639;28;20033;-88
2022/04/18 10:39:21;;;;;;;4.28;2.38;;;19.20;49.00;;;;;;5019400;28;20041;-88
2022/04/18 10:41:50;;;;;;;3.47;2.40;;;19.20;48.90;;;;;;5025758;28;20058;-88
2022/04/18 10:44:19;;;;;;;5.75;2.60;;;19.30;47.40;;;;;;5020743;28;20029;-89
2022/04/18 10:46:55;;;;;;;3.90;2.20;;;19.30;46.90;;;;;;5016581;28;20533;-88
2022/04/18 10:49:27;;;;;;;4.50;2.38;;;19.40;47.10;;;;;;5015910;28;20076;-89
2022/04/18 10:52:01;;;;;;;2.72;2.03;;;19.40;47.50;;;;;;5023706;28;20121;-90
2022/04/18 10:54:33;;;;;;;3.25;2.20;;;19.50;46.10;;;;;;5027763;28;20033;-89
2022/04/18 10:57:02;;;;;;;5.30;2.13;;;19.60;43.80;;;;;;5029758;28;20079;-89
2022/04/18 10:59:41;;;;;;;4.15;2.60;;;19.60;44.10;;;;;;5027291;28;20512;-88
2022/04/18 11:02:07;;;;;;;4.03;2.00;;;19.60;45.20;;;;;;5022471;28;20040;-89
2022/04/18 11:04:47;;;;;;;3.97;2.20;;;19.70;45.30;;;;;;5018031;28;20022;-88
2022/04/18 11:07:14;;;;;;;10.67;7.10;;;19.80;44.80;;;;;;5019167;28;20152;-88
2022/04/18 11:09:49;;;;;;;37.33;28.40;;;19.90;44.00;;;;;;5026161;28;20026;-89
2022/04/18 11:12:20;;;;;;;7.07;4.72;;;19.90;43.80;;;;;;5029361;28;20048;-89
2022/04/18 11:15:04;;;;;;;9.25;6.13;;;20.00;44.00;;;;;;5019368;28;20053;-88
2022/04/18 11:17:38;;;;;;;3.92;2.75;;;20.10;44.20;;;;;;5027235;28;20022;-87
2022/04/18 11:20:32;;;;;;;6.45;4.47;;;20.20;43.00;;;;;;5018276;28;20022;-88
2022/04/18 11:23:19;;;;;;;4.18;2.53;;;20.30;42.70;;;;;;5015071;28;20080;-89
2022/04/18 11:26:02;;;;;;;9.48;7.85;;;20.40;42.60;;;;;;5029763;28;20022;-89
2022/04/18 11:28:37;;;;;;;5.68;3.58;;;20.40;43.50;;;;;;5002337;28;20026;-87
2022/04/18 11:31:16;;;;;;;8.63;5.40;;;20.50;44.20;;;;;;5014348;28;20032;-88
2022/04/18 11:33:43;;;;;;;4.72;3.08;;;20.60;44.50;;;;;;5014949;28;20490;-87
2022/04/18 11:36:10;;;;;;;4.15;2.78;;;20.70;43.40;;;;;;5001502;28;20034;-87
2022/04/18 11:38:36;;;;;;;3.95;3.05;;;20.80;43.30;;;;;;5001755;28;20024;-86
2022/04/18 11:41:12;;;;;;;4.93;3.22;;;20.90;44.20;;;;;;5014767;28;20116;-87
2022/04/18 11:43:38;;;;;;;5.13;2.95;;;21.00;43.80;;;;;;5029853;28;20018;-91
2022/04/18 11:46:09;;;;;;;5.03;3.08;;;21.00;44.30;;;;;;5000271;28;20141;-88
2022/04/18 11:48:36;;;;;;;4.45;2.72;;;21.10;43.60;;;;;;5017502;28;20018;-89
2022/04/18 11:51:03;;;;;;;5.13;3.20;;;21.20;43.60;;;;;;5013059;28;20417;-89
2022/04/18 11:53:33;;;;;;;4.68;3.33;;;21.30;43.80;;;;;;5014192;28;20479;-89
2022/04/18 11:56:03;;;;;;;4.72;3.42;;;21.30;42.90;;;;;;5014540;28;20018;-87
2022/04/18 11:58:35;;;;;;;3.63;2.80;;;21.40;42.60;;;;;;5021482;28;20053;-91
2022/04/18 12:06:46;;;;;;;4.72;3.00;;;21.60;42.50;;;;;;5015899;28;20123;-89
2022/04/18 12:09:22;;;;;;;5.35;2.45;;;21.60;43.30;;;;;;5010096;28;20054;-88
2022/04/18 12:11:48;;;;;;;3.75;2.42;;;21.70;41.60;;;;;;5014767;28;20034;-88
2022/04/18 12:14:14;;;;;;;3.55;2.60;;;21.70;40.60;;;;;;5025240;28;20481;-88
2022/04/18 12:16:42;;;;;;;4.97;3.15;;;21.70;41.20;;;;;;5008817;28;20097;-88
2022/04/18 12:19:11;;;;;;;6.53;3.30;;;21.80;42.50;;;;;;5029699;28;20033;-87
2022/04/18 12:21:37;;;;;;;7.80;3.10;;;21.90;42.50;;;;;;5026534;28;20312;-89
2022/04/18 12:24:13;;;;;;;5.05;2.92;;;22.00;42.90;;;;;;5014316;28;20018;-88
2022/04/18 12:26:39;;;;;;;4.60;2.92;;;22.00;42.70;;;;;;5018890;28;20105;-87
2022/04/18 12:29:11;;;;;;;5.30;3.13;;;22.20;43.50;;;;;;5018019;28;20390;-88
2022/04/18 12:31:41;;;;;;;4.78;2.80;;;22.20;41.10;;;;;;5025532;28;20030;-88
2022/04/18 12:34:15;;;;;;;4.28;2.58;;;22.30;41.20;;;;;;5030088;28;20033;-88
2022/04/18 12:36:41;;;;;;;4.68;2.55;;;22.40;42.00;;;;;;5031792;28;20061;-88
2022/04/18 12:39:06;;;;;;;3.88;2.50;;;22.40;42.70;;;;;;5021392;28;20022;-86
2022/04/18 12:41:33;;;;;;;5.10;2.83;;;22.50;41.40;;;;;;5029843;28;20092;-86
2022/04/18 12:43:59;;;;;;;3.53;2.40;;;22.60;41.10;;;;;;5026267;28;20066;-87
2022/04/18 12:46:32;;;;;;;5.18;2.47;;;22.70;39.60;;;;;;5018250;28;20113;-87
2022/04/18 12:49:05;;;;;;;5.15;2.53;;;22.70;40.20;;;;;;5033733;28;20104;-88
2022/04/18 12:51:37;;;;;;;6.07;2.70;;;22.70;39.90;;;;;;5022446;28;20045;-88
2022/04/18 12:54:19;;;;;;;5.30;2.83;;;22.80;40.50;;;;;;5017193;28;20022;-88
2022/04/18 12:56:46;;;;;;;4.45;2.83;;;22.90;41.00;;;;;;5026893;28;20017;-88
2022/04/18 12:59:14;;;;;;;5.43;2.65;;;22.90;39.70;;;;;;5016645;28;20053;-87
2022/04/18 13:01:40;;;;;;;5.60;2.47;;;22.90;40.10;;;;;;5018516;28;20387;-87
2022/04/18 13:04:28;;;;;;;4.28;2.65;;;23.00;40.80;;;;;;5012518;28;20117;-86
2022/04/18 13:07:03;;;;;;;4.30;2.38;;;23.10;39.50;;;;;;5015445;28;20034;-87
2022/04/18 13:09:38;;;;;;;5.10;2.90;;;23.20;40.30;;;;;;5021322;28;20029;-87